createdAt,value
2022-11-20T00:04:30.599Z,19.20
2022-11-20T00:09:33.933Z,17.50
2022-11-20T00:14:37.256Z,19.05
2022-11-20T00:19:42.055Z,20.90
2022-11-20T00:24:45.373Z,20.37
2022-11-20T00:29:48.641Z,20.35
2022-11-20T00:34:53.313Z,20.35
2022-11-20T00:39:56.754Z,20.93
2022-11-20T00:45:00.079Z,21.10
2022-11-20T00:50:05.377Z,20.80
2022-11-20T00:55:09.291Z,20.92
2022-11-20T01:00:13.060Z,20.33
2022-11-20T01:05:17.974Z,21.30
2022-11-20T01:10:21.293Z,20.10
2022-11-20T01:15:24.551Z,19.97
2022-11-20T01:20:29.252Z,19.90
2022-11-20T01:25:32.581Z,19.63
2022-11-20T01:30:36.285Z,19.20
2022-11-20T01:35:40.964Z,19.67
2022-11-20T01:40:44.315Z,19.50
2022-11-20T01:46:00.529Z,20.20
2022-11-20T01:51:06.427Z,18.85
2022-11-20T01:56:14.003Z,18.75
2022-11-20T02:01:17.674Z,20.00
2022-11-20T02:06:27.996Z,21.42
2022-11-20T02:11:32.609Z,20.42
2022-11-20T02:16:38.653Z,19.30
2022-11-20T02:21:49.968Z,19.10
2022-11-20T02:26:57.365Z,18.63
2022-11-20T02:32:02.866Z,19.27
2022-11-20T02:37:06.157Z,20.17
2022-11-20T02:42:10.784Z,18.90
2022-11-20T02:47:14.088Z,19.83
2022-11-20T02:52:17.432Z,20.17
2022-11-20T02:57:22.114Z,19.30
2022-11-20T03:02:25.415Z,19.60
2022-11-20T03:07:28.763Z,19.27
2022-11-20T03:12:33.497Z,20.97
2022-11-20T03:17:36.755Z,20.80
2022-11-20T03:22:40.020Z,20.52
2022-11-20T03:27:44.712Z,19.45
2022-11-20T03:32:48.004Z,18.92
2022-11-20T03:37:51.298Z,20.02
2022-11-20T03:42:55.957Z,20.25
2022-11-20T03:47:59.229Z,19.45
2022-11-20T03:53:02.517Z,19.15
2022-11-20T03:58:07.376Z,20.33
2022-11-20T04:03:10.777Z,19.35
2022-11-20T04:08:14.127Z,20.90
2022-11-20T04:13:18.899Z,20.70
2022-11-20T04:18:22.254Z,21.98
2022-11-20T04:23:28.713Z,22.50
2022-11-20T04:28:33.691Z,22.80
2022-11-20T04:33:38.029Z,22.58
2022-11-20T04:38:41.442Z,24.87
2022-11-20T04:43:48.715Z,20.20
2022-11-20T04:48:52.041Z,21.15
2022-11-20T04:53:56.218Z,21.20
2022-11-20T04:59:04.609Z,24.42
2022-11-20T05:04:08.214Z,23.50
2022-11-20T05:09:11.688Z,29.17
2022-11-20T05:14:16.449Z,24.25
2022-11-20T05:19:20.145Z,27.70
2022-11-20T05:24:23.697Z,27.17
2022-11-20T05:29:28.535Z,24.08
2022-11-20T05:34:31.856Z,24.53
2022-11-20T05:39:35.204Z,23.52
2022-11-20T05:44:39.886Z,22.30
2022-11-20T05:49:43.294Z,22.23
2022-11-20T05:54:46.705Z,22.60
2022-11-20T05:59:51.508Z,21.42
2022-11-20T06:04:54.925Z,23.50
2022-11-20T06:09:58.209Z,22.27
2022-11-20T06:15:02.908Z,23.63
2022-11-20T06:20:07.202Z,24.23
2022-11-20T06:25:10.823Z,23.60
2022-11-20T06:30:16.050Z,23.48
2022-11-20T06:35:19.348Z,21.42
2022-11-20T06:40:22.625Z,24.52
2022-11-20T06:45:27.285Z,23.75
2022-11-20T06:50:30.608Z,23.52
2022-11-20T06:55:34.325Z,24.60
2022-11-20T07:00:39.351Z,23.70
2022-11-20T07:05:42.965Z,24.13
2022-11-20T07:10:46.412Z,23.20
2022-11-20T07:15:51.083Z,26.17
2022-11-20T07:20:54.355Z,27.55
2022-11-20T07:25:57.729Z,23.15
2022-11-20T07:31:02.476Z,25.23
2022-11-20T07:36:06.744Z,24.55
2022-11-20T07:41:10.119Z,25.02
2022-11-20T07:46:15.002Z,23.33
2022-11-20T07:51:18.303Z,22.25
2022-11-20T07:56:21.595Z,21.20
2022-11-20T08:01:26.381Z,21.03
2022-11-20T08:06:29.696Z,16.63
2022-11-20T08:11:50.526Z,17.92
2022-11-20T08:16:55.446Z,11.98
2022-11-20T08:21:58.771Z,7.45
2022-11-20T08:27:02.407Z,6.53
2022-11-20T08:32:07.165Z,6.00
2022-11-20T08:37:10.444Z,5.32
2022-11-20T08:42:13.737Z,5.18
2022-11-20T08:47:18.380Z,6.50
2022-11-20T08:52:21.690Z,5.00
2022-11-20T08:57:24.976Z,4.25
2022-11-20T09:02:29.648Z,6.20
2022-11-20T09:07:33.249Z,4.50
2022-11-20T09:12:36.563Z,3.67
2022-11-20T09:17:42.004Z,6.15
2022-11-20T09:22:45.455Z,3.87
2022-11-20T09:27:49.022Z,4.20
2022-11-20T09:32:54.058Z,3.33
2022-11-20T09:37:57.408Z,3.72
2022-11-20T09:43:09.683Z,2.40
2022-11-20T09:48:42.460Z,1.60
2022-11-20T09:53:57.392Z,2.60
2022-11-20T09:59:05.434Z,1.83
2022-11-20T10:04:16.265Z,2.30
2022-11-20T10:09:27.896Z,4.97
2022-11-20T10:14:43.828Z,3.33
2022-11-20T10:20:02.251Z,2.70
2022-11-20T10:25:16.064Z,3.13
2022-11-20T10:30:25.257Z,2.55
2022-11-20T10:35:41.041Z,2.88
2022-11-20T10:40:47.828Z,2.22
2022-11-20T10:45:58.735Z,3.70
2022-11-20T10:51:12.704Z,3.00
2022-11-20T10:56:22.710Z,2.78
2022-11-20T11:01:27.597Z,3.25
2022-11-20T11:06:38.669Z,2.60
2022-11-20T11:11:42.000Z,1.88
2022-11-20T11:16:52.785Z,2.67
2022-11-20T11:21:58.647Z,2.20
2022-11-20T11:27:05.558Z,2.80
2022-11-20T11:32:10.426Z,2.57
2022-11-20T11:37:22.564Z,2.28
2022-11-20T11:42:26.166Z,1.48
2022-11-20T11:47:33.232Z,1.90
2022-11-20T11:52:43.705Z,1.60
2022-11-20T11:57:52.196Z,1.60
2022-11-20T12:03:06.464Z,1.38
2022-11-20T12:08:19.582Z,1.50
2022-11-20T12:13:34.789Z,2.00
2022-11-20T12:18:38.132Z,1.50
2022-11-20T12:23:52.960Z,2.40
2022-11-20T12:29:07.480Z,2.40
2022-11-20T12:34:29.881Z,1.60
2022-11-20T12:39:44.564Z,1.13
2022-11-20T12:45:20.142Z,1.77
2022-11-20T12:50:42.904Z,1.47
2022-11-20T12:56:06.545Z,2.05
2022-11-20T13:01:46.927Z,1.77
2022-11-20T13:06:50.983Z,2.53
2022-11-20T13:12:00.442Z,1.70
2022-11-20T13:17:10.584Z,1.70
2022-11-20T13:22:13.944Z,1.73
2022-11-20T13:27:25.907Z,1.40
2022-11-20T13:32:33.077Z,1.70
2022-11-20T13:37:38.589Z,2.00
2022-11-20T13:42:47.569Z,2.00
2022-11-20T13:47:51.940Z,1.90
2022-11-20T13:53:03.328Z,1.70
2022-11-20T13:58:29.657Z,2.20
2022-11-20T14:04:04.596Z,1.98
2022-11-20T14:08:59.671Z,2.90
2022-11-20T14:14:06.763Z,3.10
2022-11-20T14:19:31.569Z,2.72
2022-11-20T14:24:35.469Z,3.40
2022-11-20T14:29:41.698Z,2.10
2022-11-20T14:34:48.026Z,2.03
2022-11-20T14:39:54.059Z,3.80
2022-11-20T14:45:00.562Z,1.60
2022-11-20T14:50:08.803Z,1.15
2022-11-20T14:55:28.177Z,2.70
2022-11-20T15:00:35.542Z,5.18
2022-11-20T15:05:49.958Z,10.10
2022-11-20T15:10:55.026Z,2.33
2022-11-20T15:16:02.178Z,1.10
2022-11-20T15:21:12.296Z,2.03
2022-11-20T15:26:22.173Z,0.80
2022-11-20T15:31:27.377Z,1.50
2022-11-20T15:36:31.207Z,1.50
2022-11-20T15:41:35.377Z,1.33
2022-11-20T15:46:45.459Z,1.90
2022-11-20T15:51:50.783Z,1.60
2022-11-20T15:56:54.402Z,1.20
2022-11-20T16:01:59.094Z,1.40
2022-11-20T16:07:02.543Z,1.60
2022-11-20T16:12:06.426Z,1.10
2022-11-20T16:17:11.230Z,1.58
2022-11-20T16:22:15.015Z,3.40
2022-11-20T16:27:18.446Z,2.63
2022-11-20T16:32:23.307Z,3.10
2022-11-20T16:37:26.731Z,3.60
2022-11-20T16:42:30.323Z,2.83
2022-11-20T16:47:37.129Z,4.28
2022-11-20T16:52:42.496Z,4.00
2022-11-20T16:57:46.308Z,5.95
2022-11-20T17:02:51.472Z,5.72
2022-11-20T17:07:55.177Z,5.10
2022-11-20T17:12:58.549Z,4.07
2022-11-20T17:18:03.684Z,4.68
2022-11-20T17:23:07.848Z,7.85
2022-11-20T17:28:11.792Z,6.38
2022-11-20T17:33:17.714Z,6.30
2022-11-20T17:38:21.311Z,7.03
2022-11-20T17:43:25.161Z,7.50
2022-11-20T17:48:32.359Z,7.32
2022-11-20T17:53:38.202Z,12.57
2022-11-20T17:58:41.700Z,13.73
2022-11-20T18:03:47.560Z,21.17
2022-11-20T18:08:51.828Z,22.73
2022-11-20T18:14:14.720Z,19.73
2022-11-20T18:19:21.584Z,19.60
2022-11-20T18:24:25.077Z,17.20
2022-11-20T18:29:28.905Z,18.20
2022-11-20T18:34:33.658Z,20.55
2022-11-20T18:39:37.092Z,16.15
2022-11-20T18:44:52.302Z,19.63
2022-11-20T18:49:58.280Z,17.17
2022-11-20T18:55:02.308Z,18.13
2022-11-20T19:00:09.567Z,16.42
2022-11-20T19:05:16.331Z,17.98
2022-11-20T19:10:20.992Z,31.40
2022-11-20T19:15:24.772Z,18.33
2022-11-20T19:20:29.516Z,11.32
2022-11-20T19:25:37.749Z,11.10
2022-11-20T19:30:41.873Z,23.33
2022-11-20T19:35:46.621Z,19.20
2022-11-20T19:40:50.049Z,28.87
2022-11-20T19:45:53.538Z,22.40
2022-11-20T19:50:58.384Z,15.53
2022-11-20T19:56:02.122Z,7.85
2022-11-20T20:01:09.378Z,7.22
2022-11-20T20:06:17.024Z,4.90
2022-11-20T20:11:22.525Z,4.15
2022-11-20T20:16:28.180Z,4.22
2022-11-20T20:21:34.443Z,4.70
2022-11-20T20:26:38.010Z,5.90
2022-11-20T20:31:41.513Z,5.82
2022-11-20T20:36:46.211Z,5.20
2022-11-20T20:41:49.628Z,6.90
2022-11-20T20:46:53.419Z,9.80
2022-11-20T20:51:58.208Z,14.20
2022-11-20T20:57:01.577Z,9.90
2022-11-20T21:02:04.969Z,9.23
2022-11-20T21:07:11.206Z,7.60
2022-11-20T21:12:15.087Z,9.02
2022-11-20T21:17:18.385Z,19.00
2022-11-20T21:22:23.198Z,13.05
2022-11-20T21:27:28.282Z,12.75
2022-11-20T21:32:31.898Z,11.60
2022-11-20T21:37:40.772Z,7.40
2022-11-20T21:42:44.477Z,4.53
2022-11-20T21:47:50.498Z,4.27
2022-11-20T21:52:55.206Z,3.30
2022-11-20T21:57:58.558Z,3.15
2022-11-20T22:03:01.928Z,2.90
2022-11-20T22:08:07.428Z,4.60
2022-11-20T22:13:28.183Z,4.45
2022-11-20T22:18:31.473Z,2.50
2022-11-20T22:23:36.740Z,1.97
2022-11-20T22:28:41.018Z,2.25
2022-11-20T22:33:44.477Z,1.25
2022-11-20T22:38:49.494Z,1.20
2022-11-20T22:43:56.384Z,1.00
2022-11-20T22:49:01.447Z,1.33
2022-11-20T22:54:06.644Z,1.48
2022-11-20T22:59:10.345Z,1.52
2022-11-20T23:04:13.583Z,1.63
2022-11-20T23:09:18.304Z,2.50
2022-11-20T23:14:27.408Z,1.70
2022-11-20T23:19:31.007Z,1.07
2022-11-20T23:24:35.731Z,1.40
2022-11-20T23:29:39.144Z,1.70
2022-11-20T23:34:42.413Z,1.77
2022-11-20T23:39:47.106Z,1.38
2022-11-20T23:44:50.379Z,1.88
2022-11-20T23:49:54.016Z,0.87
2022-11-20T23:54:58.655Z,1.40
